sensor_id;sensor_type;location;lat;lon;timestamp;pressure;altitude;pressure_sealevel;temperature;humidity
73101;BME280;61288;53.446;-2.266;2023-10-09T00:00:31;103209.22;;;13.70;100.00
73101;BME280;61288;53.446;-2.266;2023-10-09T00:03:06;103215.25;;;13.72;100.00
73101;BME280;61288;53.446;-2.266;2023-10-09T00:05:32;103222.19;;;13.73;100.00
73101;BME280;61288;53.446;-2.266;2023-10-09T00:08:15;103215.31;;;13.70;100.00
73101;BME280;61288;53.446;-2.266;2023-10-09T00:11:01;103207.50;;;13.69;100.00
73101;BME280;61288;53.446;-2.266;2023-10-09T00:13:46;103213.59;;;13.68;100.00
73101;BME280;61288;53.446;-2.266;2023-10-09T00:16:20;103214.47;;;13.68;100.00
73101;BME280;61288;53.446;-2.266;2023-10-09T00:19:03;103221.44;;;13.65;100.00
73101;BME280;61288;53.446;-2.266;2023-10-09T00:21:48;103244.06;;;13.63;100.00
73101;BME280;61288;53.446;-2.266;2023-10-09T00:24:15;103242.31;;;13.62;100.00
73101;BME280;61288;53.446;-2.266;2023-10-09T00:26:51;103243.25;;;13.59;100.00
73101;BME280;61288;53.446;-2.266;2023-10-09T00:29:17;103262.31;;;13.60;100.00
73101;BME280;61288;53.446;-2.266;2023-10-09T00:31:52;103245.00;;;13.55;100.00
73101;BME280;61288;53.446;-2.266;2023-10-09T00:34:31;103241.56;;;13.53;100.00
73101;BME280;61288;53.446;-2.266;2023-10-09T00:37:05;103249.38;;;13.53;100.00
73101;BME280;61288;53.446;-2.266;2023-10-09T00:39:36;103245.94;;;13.51;100.00
73101;BME280;61288;53.446;-2.266;2023-10-09T00:42:05;103248.59;;;13.48;100.00
73101;BME280;61288;53.446;-2.266;2023-10-09T00:44:32;103240.75;;;13.48;100.00
73101;BME280;61288;53.446;-2.266;2023-10-09T00:47:14;103245.97;;;13.47;100.00
73101;BME280;61288;53.446;-2.266;2023-10-09T00:49:56;103239.94;;;13.45;100.00
73101;BME280;61288;53.446;-2.266;2023-10-09T00:52:50;103226.91;;;13.45;100.00
73101;BME280;61288;53.446;-2.266;2023-10-09T00:55:31;103233.00;;;13.45;100.00
73101;BME280;61288;53.446;-2.266;2023-10-09T00:58:12;103231.28;;;13.44;100.00
73101;BME280;61288;53.446;-2.266;2023-10-09T01:00:40;103227.75;;;13.42;100.00
73101;BME280;61288;53.446;-2.266;2023-10-09T01:03:14;103223.47;;;13.39;100.00
73101;BME280;61288;53.446;-2.266;2023-10-09T01:05:44;103238.22;;;13.40;100.00
73101;BME280;61288;53.446;-2.266;2023-10-09T01:08:40;103229.56;;;13.38;100.00
73101;BME280;61288;53.446;-2.266;2023-10-09T01:11:12;103230.41;;;13.39;100.00
73101;BME280;61288;53.446;-2.266;2023-10-09T01:13:48;103239.97;;;13.38;100.00
73101;BME280;61288;53.446;-2.266;2023-10-09T01:16:27;103235.66;;;13.37;100.00
73101;BME280;61288;53.446;-2.266;2023-10-09T01:18:56;103228.72;;;13.35;100.00
73101;BME280;61288;53.446;-2.266;2023-10-09T01:21:24;103237.41;;;13.34;100.00
73101;BME280;61288;53.446;-2.266;2023-10-09T01:23:52;103234.84;;;13.32;100.00
73101;BME280;61288;53.446;-2.266;2023-10-09T01:26:25;103240.06;;;13.32;100.00
73101;BME280;61288;53.446;-2.266;2023-10-09T01:28:50;103242.66;;;13.32;100.00
73101;BME280;61288;53.446;-2.266;2023-10-09T01:31:16;103240.94;;;13.29;100.00
73101;BME280;61288;53.446;-2.266;2023-10-09T01:33:42;103233.16;;;13.26;100.00
73101;BME280;61288;53.446;-2.266;2023-10-09T01:36:08;103233.19;;;13.23;100.00
73101;BME280;61288;53.446;-2.266;2023-10-09T01:38:38;103224.53;;;13.21;100.00
73101;BME280;61288;53.446;-2.266;2023-10-09T01:41:12;103223.69;;;13.19;100.00
73101;BME280;61288;53.446;-2.266;2023-10-09T01:43:45;103216.78;;;13.17;100.00
73101;BME280;61288;53.446;-2.266;2023-10-09T01:46:12;103217.69;;;13.14;100.00
73101;BME280;61288;53.446;-2.266;2023-10-09T01:48:41;103222.03;;;13.13;100.00
73101;BME280;61288;53.446;-2.266;2023-10-09T01:51:13;103248.97;;;13.09;100.00
73101;BME280;61288;53.446;-2.266;2023-10-09T01:53:43;103247.28;;;13.05;100.00
73101;BME280;61288;53.446;-2.266;2023-10-09T01:56:12;103245.53;;;13.06;100.00
73101;BME280;61288;53.446;-2.266;2023-10-09T01:58:42;103241.16;;;13.08;100.00
73101;BME280;61288;53.446;-2.266;2023-10-09T02:01:13;103248.16;;;13.04;100.00
73101;BME280;61288;53.446;-2.266;2023-10-09T02:03:40;103255.13;;;13.02;100.00
73101;BME280;61288;53.446;-2.266;2023-10-09T02:06:08;103250.78;;;12.99;100.00
73101;BME280;61288;53.446;-2.266;2023-10-09T02:08:55;103246.44;;;13.02;100.00
73101;BME280;61288;53.446;-2.266;2023-10-09T02:11:21;103235.19;;;12.99;100.00
73101;BME280;61288;53.446;-2.266;2023-10-09T02:14:04;103234.28;;;13.00;100.00
73101;BME280;61288;53.446;-2.266;2023-10-09T02:16:47;103217.81;;;13.02;100.00
73101;BME280;61288;53.446;-2.266;2023-10-09T02:19:33;103208.22;;;13.04;100.00
73101;BME280;61288;53.446;-2.266;2023-10-09T02:22:04;103210.81;;;13.07;100.00
73101;BME280;61288;53.446;-2.266;2023-10-09T02:24:43;103209.91;;;13.08;100.00
73101;BME280;61288;53.446;-2.266;2023-10-09T02:27:16;103212.53;;;13.08;100.00
73101;BME280;61288;53.446;-2.266;2023-10-09T02:30:03;103216.03;;;13.05;100.00
73101;BME280;61288;53.446;-2.266;2023-10-09T02:32:43;103221.25;;;13.05;100.00
73101;BME280;61288;53.446;-2.266;2023-10-09T02:35:10;103236.03;;;13.02;100.00
73101;BME280;61288;53.446;-2.266;2023-10-09T02:37:46;103245.59;;;13.01;100.00
73101;BME280;61288;53.446;-2.266;2023-10-09T02:40:14;103263.81;;;13.01;100.00
73101;BME280;61288;53.446;-2.266;2023-10-09T02:42:52;103256.00;;;13.01;100.00
73101;BME280;61288;53.446;-2.266;2023-10-09T02:45:18;103264.66;;;13.02;100.00
73101;BME280;61288;53.446;-2.266;2023-10-09T02:47:45;103271.56;;;13.03;100.00
73101;BME280;61288;53.446;-2.266;2023-10-09T02:50:15;103259.47;;;13.00;100.00
73101;BME280;61288;53.446;-2.266;2023-10-09T02:52:48;103265.53;;;13.02;100.00
73101;BME280;61288;53.446;-2.266;2023-10-09T02:55:26;103254.25;;;13.03;100.00
73101;BME280;61288;53.446;-2.266;2023-10-09T02:57:56;103257.72;;;13.00;100.00
73101;BME280;61288;53.446;-2.266;2023-10-09T03:00:31;103258.63;;;12.98;100.00
73101;BME280;61288;53.446;-2.266;2023-10-09T03:02:58;103248.22;;;12.98;100.00
73101;BME280;61288;53.446;-2.266;2023-10-09T03:05:24;103253.41;;;12.99;100.00
73101;BME280;61288;53.446;-2.266;2023-10-09T03:07:59;103261.19;;;12.99;100.00
73101;BME280;61288;53.446;-2.266;2023-10-09T03:10:25;103265.56;;;12.99;100.00
73101;BME280;61288;53.446;-2.266;2023-10-09T03:12:51;103276.84;;;12.96;100.00
73101;BME280;61288;53.446;-2.266;2023-10-09T03:15:21;103269.06;;;12.95;100.00
73101;BME280;61288;53.446;-2.266;2023-10-09T03:17:48;103276.88;;;12.95;100.00
73101;BME280;61288;53.446;-2.266;2023-10-09T03:20:14;103284.69;;;12.95;100.00
73101;BME280;61288;53.446;-2.266;2023-10-09T03:22:43;103283.81;;;12.94;100.00
73101;BME280;61288;53.446;-2.266;2023-10-09T03:25:10;103275.13;;;12.95;100.00
73101;BME280;61288;53.446;-2.266;2023-10-09T03:27:46;103265.59;;;12.94;100.00
73101;BME280;61288;53.446;-2.266;2023-10-09T03:30:16;103269.94;;;12.94;100.00
73101;BME280;61288;53.446;-2.266;2023-10-09T03:32:49;103275.16;;;12.92;100.00
73101;BME280;61288;53.446;-2.266;2023-10-09T03:35:22;103277.75;;;12.91;100.00
73101;BME280;61288;53.446;-2.266;2023-10-09T03:37:54;103262.13;;;12.91;100.00
73101;BME280;61288;53.446;-2.266;2023-10-09T03:40:37;103257.81;;;12.91;100.00
73101;BME280;61288;53.446;-2.266;2023-10-09T03:43:04;103277.78;;;12.88;100.00
73101;BME280;61288;53.446;-2.266;2023-10-09T03:45:30;103280.41;;;12.86;100.00
73101;BME280;61288;53.446;-2.266;2023-10-09T03:48:00;103279.53;;;12.87;100.00
73101;BME280;61288;53.446;-2.266;2023-10-09T03:50:40;103280.41;;;12.86;100.00
73101;BME280;61288;53.446;-2.266;2023-10-09T03:53:09;103293.47;;;12.83;100.00
73101;BME280;61288;53.446;-2.266;2023-10-09T03:55:39;103301.25;;;12.83;100.00
73101;BME280;61288;53.446;-2.266;2023-10-09T03:58:08;103289.94;;;12.85;100.00
73101;BME280;61288;53.446;-2.266;2023-10-09T04:00:37;103284.78;;;12.84;100.00
73101;BME280;61288;53.446;-2.266;2023-10-09T04:03:15;103289.09;;;12.83;100.00
73101;BME280;61288;53.446;-2.266;2023-10-09T04:05:41;103294.34;;;12.82;100.00
73101;BME280;61288;53.446;-2.266;2023-10-09T04:08:11;103296.94;;;12.82;100.00
73101;BME280;61288;53.446;-2.266;2023-10-09T04:10:45;103292.59;;;12.82;100.00
73101;BME280;61288;53.446;-2.266;2023-10-09T04:13:18;103301.28;;;12.80;100.00
73101;BME280;61288;53.446;-2.266;2023-10-09T04:15:50;103311.69;;;12.78;100.00
73101;BME280;61288;53.446;-2.266;2023-10-09T04:18:19;103304.78;;;12.79;100.00
73101;BME280;61288;53.446;-2.266;2023-10-09T04:20:45;103316.91;;;12.80;100.00
73101;BME280;61288;53.446;-2.266;2023-10-09T04:23:30;103319.53;;;12.77;100.00
73101;BME280;61288;53.446;-2.266;2023-10-09T04:26:21;103312.56;;;12.76;100.00
73101;BME280;61288;53.446;-2.266;2023-10-09T04:28:50;103314.31;;;12.75;100.00
73101;BME280;61288;53.446;-2.266;2023-10-09T04:31:19;103331.66;;;12.75;100.00
73101;BME280;61288;53.446;-2.266;2023-10-09T04:33:47;103331.69;;;12.71;100.00
73101;BME280;61288;53.446;-2.266;2023-10-09T04:36:51;103339.50;;;12.68;100.00
73101;BME280;61288;53.446;-2.266;2023-10-09T04:39:22;103336.06;;;12.66;100.00
73101;BME280;61288;53.446;-2.266;2023-10-09T04:41:53;103343.03;;;12.61;100.00
73101;BME280;61288;53.446;-2.266;2023-10-09T04:44:39;103337.84;;;12.61;100.00
73101;BME280;61288;53.446;-2.266;2023-10-09T04:47:05;103331.78;;;12.61;100.00
73101;BME280;61288;53.446;-2.266;2023-10-09T04:49:40;103333.50;;;12.60;100.00
73101;BME280;61288;53.446;-2.266;2023-10-09T04:52:27;103343.91;;;12.65;100.00
73101;BME280;61288;53.446;-2.266;2023-10-09T04:54:59;103353.41;;;12.67;100.00
73101;BME280;61288;53.446;-2.266;2023-10-09T05:00:18;103357.75;;;12.67;100.00
73101;BME280;61288;53.446;-2.266;2023-10-09T05:02:55;103355.13;;;12.68;100.00
73101;BME280;61288;53.446;-2.266;2023-10-09T05:05:29;103367.25;;;12.71;100.00
73101;BME280;61288;53.446;-2.266;2023-10-09T05:08:08;103362.91;;;12.73;100.00
73101;BME280;61288;53.446;-2.266;2023-10-09T05:10:48;103375.00;;;12.77;100.00
73101;BME280;61288;53.446;-2.266;2023-10-09T05:13:23;103386.28;;;12.81;100.00
73101;BME280;61288;53.446;-2.266;2023-10-09T05:18:30;103385.34;;;12.86;100.00
73101;BME280;61288;53.446;-2.266;2023-10-09T05:21:03;103389.69;;;12.88;100.00
73101;BME280;61288;53.446;-2.266;2023-10-09T05:23:42;103392.28;;;12.89;100.00
73101;BME280;61288;53.446;-2.266;2023-10-09T05:26:17;103389.66;;;12.92;100.00
73101;BME280;61288;53.446;-2.266;2023-10-09T05:29:04;103376.66;;;12.94;100.00
73101;BME280;61288;53.446;-2.266;2023-10-09T05:31:48;103395.72;;;12.94;100.00
73101;BME280;61288;53.446;-2.266;2023-10-09T05:34:33;103393.13;;;12.96;100.00
73101;BME280;61288;53.446;-2.266;2023-10-09T05:37:08;103398.28;;;12.99;100.00
73101;BME280;61288;53.446;-2.266;2023-10-09T05:39:46;103395.66;;;13.02;100.00
73101;BME280;61288;53.446;-2.266;2023-10-09T05:42:31;103399.13;;;13.04;100.00
73101;BME280;61288;53.446;-2.266;2023-10-09T05:45:17;103393.84;;;13.09;100.00
73101;BME280;61288;53.446;-2.266;2023-10-09T05:47:47;103404.28;;;13.10;100.00
73101;BME280;61288;53.446;-2.266;2023-10-09T05:50:19;103409.47;;;13.10;100.00
73101;BME280;61288;53.446;-2.266;2023-10-09T05:52:48;103417.25;;;13.15;100.00
73101;BME280;61288;53.446;-2.266;2023-10-09T05:55:16;103423.31;;;13.15;100.00
73101;BME280;61288;53.446;-2.266;2023-10-09T05:58:05;103412.91;;;13.17;100.00
73101;BME280;61288;53.446;-2.266;2023-10-09T06:00:50;103407.66;;;13.19;100.00
73101;BME280;61288;53.446;-2.266;2023-10-09T06:03:51;103405.06;;;13.20;100.00
73101;BME280;61288;53.446;-2.266;2023-10-09T06:06:21;103406.78;;;13.21;100.00
73101;BME280;61288;53.446;-2.266;2023-10-09T06:09:03;103410.25;;;13.22;100.00
73101;BME280;61288;53.446;-2.266;2023-10-09T06:11:42;103403.31;;;13.22;100.00
73101;BME280;61288;53.446;-2.266;2023-10-09T06:14:18;103413.69;;;13.24;100.00
73101;BME280;61288;53.446;-2.266;2023-10-09T06:17:11;103404.16;;;13.26;100.00
73101;BME280;61288;53.446;-2.266;2023-10-09T06:19:36;103407.63;;;13.25;100.00
73101;BME280;61288;53.446;-2.266;2023-10-09T06:22:09;103413.69;;;13.24;100.00
73101;BME280;61288;53.446;-2.266;2023-10-09T06:24:55;103408.50;;;13.25;100.00
73101;BME280;61288;53.446;-2.266;2023-10-09T06:27:23;103409.38;;;13.26;100.00
73101;BME280;61288;53.446;-2.266;2023-10-09T06:29:58;103407.63;;;13.26;100.00
73101;BME280;61288;53.446;-2.266;2023-10-09T06:32:42;103405.00;;;13.28;100.00
73101;BME280;61288;53.446;-2.266;2023-10-09T06:35:24;103401.53;;;13.29;100.00
73101;BME280;61288;53.446;-2.266;2023-10-09T06:38:00;103403.22;;;13.32;100.00
73101;BME280;61288;53.446;-2.266;2023-10-09T06:40:32;103398.91;;;13.32;100.00
73101;BME280;61288;53.446;-2.266;2023-10-09T06:43:18;103400.63;;;13.33;100.00
73101;BME280;61288;53.446;-2.266;2023-10-09T06:45:55;103403.19;;;13.35;100.00
73101;BME280;61288;53.446;-2.266;2023-10-09T06:48:25;103405.78;;;13.36;100.00
73101;BME280;61288;53.446;-2.266;2023-10-09T06:53:38;103405.78;;;13.38;100.00
73101;BME280;61288;53.446;-2.266;2023-10-09T06:56:26;103408.38;;;13.39;100.00
73101;BME280;61288;53.446;-2.266;2023-10-09T06:59:05;103413.56;;;13.41;100.00
73101;BME280;61288;53.446;-2.266;2023-10-09T07:01:42;103419.63;;;13.45;100.00
73101;BME280;61288;53.446;-2.266;2023-10-09T07:04:12;103430.91;;;13.47;100.00
73101;BME280;61288;53.446;-2.266;2023-10-09T07:06:49;103442.16;;;13.49;100.00
73101;BME280;61288;53.446;-2.266;2023-10-09T07:09:22;103453.44;;;13.51;100.00
73101;BME280;61288;53.446;-2.266;2023-10-09T07:11:52;103463.88;;;13.52;100.00
73101;BME280;61288;53.446;-2.266;2023-10-09T07:14:20;103464.72;;;13.54;100.00
73101;BME280;61288;53.446;-2.266;2023-10-09T07:17:02;103466.41;;;13.57;100.00
73101;BME280;61288;53.446;-2.266;2023-10-09T07:19:45;103464.69;;;13.59;100.00
73101;BME280;61288;53.446;-2.266;2023-10-09T07:22:11;103474.22;;;13.60;100.00
73101;BME280;61288;53.446;-2.266;2023-10-09T07:24:51;103470.75;;;13.61;100.00
73101;BME280;61288;53.446;-2.266;2023-10-09T07:27:27;103476.81;;;13.63;100.00
73101;BME280;61288;53.446;-2.266;2023-10-09T07:30:11;103478.50;;;13.66;100.00
73101;BME280;61288;53.446;-2.266;2023-10-09T07:32:57;103476.72;;;13.68;100.00
73101;BME280;61288;53.446;-2.266;2023-10-09T07:35:34;103468.03;;;13.69;100.00
73101;BME280;61288;53.446;-2.266;2023-10-09T07:38:13;103473.22;;;13.72;100.00
73101;BME280;61288;53.446;-2.266;2023-10-09T07:40:41;103486.22;;;13.75;100.00
73101;BME280;61288;53.446;-2.266;2023-10-09T07:43:28;103482.75;;;13.76;100.00
73101;BME280;61288;53.446;-2.266;2023-10-09T07:46:05;103496.59;;;13.80;100.00
73101;BME280;61288;53.446;-2.266;2023-10-09T07:48:31;103494.00;;;13.80;100.00
73101;BME280;61288;53.446;-2.266;2023-10-09T07:51:18;103502.66;;;13.83;100.00
73101;BME280;61288;53.446;-2.266;2023-10-09T07:53:52;103499.16;;;13.88;100.00
73101;BME280;61288;53.446;-2.266;2023-10-09T07:56:35;103497.38;;;13.90;100.00
73101;BME280;61288;53.446;-2.266;2023-10-09T07:59:12;103507.78;;;13.94;100.00
73101;BME280;61288;53.446;-2.266;2023-10-09T08:01:41;103502.53;;;13.97;100.00
73101;BME280;61288;53.446;-2.266;2023-10-09T08:04:28;103509.41;;;14.03;100.00
73101;BME280;61288;53.446;-2.266;2023-10-09T08:07:11;103511.97;;;14.06;100.00
73101;BME280;61288;53.446;-2.266;2023-10-09T08:09:51;103518.03;;;14.10;100.00
73101;BME280;61288;53.446;-2.266;2023-10-09T08:12:47;103514.56;;;14.12;100.00
73101;BME280;61288;53.446;-2.266;2023-10-09T08:15:24;103512.81;;;14.11;100.00
73101;BME280;61288;53.446;-2.266;2023-10-09T08:18:08;103513.69;;;14.13;100.00
73101;BME280;61288;53.446;-2.266;2023-10-09T08:20:40;103522.34;;;14.15;100.00
73101;BME280;61288;53.446;-2.266;2023-10-09T08:23:24;103516.22;;;14.18;100.00
73101;BME280;61288;53.446;-2.266;2023-10-09T08:26:04;103525.72;;;14.24;100.00
73101;BME280;61288;53.446;-2.266;2023-10-09T08:28:41;103530.03;;;14.28;100.00
73101;BME280;61288;53.446;-2.266;2023-10-09T08:31:16;103532.59;;;14.33;100.00
73101;BME280;61288;53.446;-2.266;2023-10-09T08:34:13;103533.41;;;14.36;100.00
73101;BME280;61288;53.446;-2.266;2023-10-09T08:36:52;103535.97;;;14.41;100.00
73101;BME280;61288;53.446;-2.266;2023-10-09T08:39:22;103531.59;;;14.44;100.00
73101;BME280;61288;53.446;-2.266;2023-10-09T08:41:52;103534.16;;;14.48;100.00
73101;BME280;61288;53.446;-2.266;2023-10-09T08:44:23;103531.53;;;14.49;100.00
73101;BME280;61288;53.446;-2.266;2023-10-09T08:46:54;103532.38;;;14.51;100.00
73101;BME280;61288;53.446;-2.266;2023-10-09T08:49:19;103534.94;;;14.54;100.00
73101;BME280;61288;53.446;-2.266;2023-10-09T08:51:47;103531.44;;;14.57;100.00
73101;BME280;61288;53.446;-2.266;2023-10-09T08:54:13;103525.34;;;14.59;100.00
73101;BME280;61288;53.446;-2.266;2023-10-09T08:56:41;103524.41;;;14.62;100.00
73101;BME280;61288;53.446;-2.266;2023-10-09T08:59:16;103507.81;;;14.68;100.00
73101;BME280;61288;53.446;-2.266;2023-10-09T09:01:49;103515.59;;;14.72;100.00
73101;BME280;61288;53.446;-2.266;2023-10-09T09:06:59;103507.69;;;14.80;100.00
73101;BME280;61288;53.446;-2.266;2023-10-09T09:09:27;103501.56;;;14.83;100.00
73101;BME280;61288;53.446;-2.266;2023-10-09T09:11:55;103494.53;;;14.86;100.00
73101;BME280;61288;53.446;-2.266;2023-10-09T09:14:35;103488.44;;;14.89;100.00
73101;BME280;61288;53.446;-2.266;2023-10-09T09:17:03;103473.59;;;14.93;100.00
73101;BME280;61288;53.446;-2.266;2023-10-09T09:19:32;103473.56;;;14.96;100.00
73101;BME280;61288;53.446;-2.266;2023-10-09T09:21:58;103461.34;;;14.98;100.00
73101;BME280;61288;53.446;-2.266;2023-10-09T09:24:38;103455.13;;;15.04;100.00
73101;BME280;61288;53.446;-2.266;2023-10-09T09:27:05;103459.47;;;15.06;100.00
73101;BME280;61288;53.446;-2.266;2023-10-09T09:29:44;103462.03;;;15.09;100.00
73101;BME280;61288;53.446;-2.266;2023-10-09T09:32:30;103468.06;;;15.13;100.00
73101;BME280;61288;53.446;-2.266;2023-10-09T09:35:01;103459.25;;;15.19;100.00
73101;BME280;61288;53.446;-2.266;2023-10-09T09:37:31;103462.69;;;15.22;100.00
73101;BME280;61288;53.446;-2.266;2023-10-09T09:40:04;103463.53;;;15.24;100.00
73101;BME280;61288;53.446;-2.266;2023-10-09T09:43:02;103456.47;;;15.29;100.00
73101;BME280;61288;53.446;-2.266;2023-10-09T09:45:36;103459.06;;;15.31;100.00
73101;BME280;61288;53.446;-2.266;2023-10-09T09:48:07;103466.03;;;15.30;100.00
73101;BME280;61288;53.446;-2.266;2023-10-09T09:50:36;103454.75;;;15.30;100.00
73101;BME280;61288;53.446;-2.266;2023-10-09T09:53:15;103445.13;;;15.32;100.00
73101;BME280;61288;53.446;-2.266;2023-10-09T09:55:52;103445.97;;;15.34;100.00
73101;BME280;61288;53.446;-2.266;2023-10-09T09:58:21;103447.63;;;15.38;100.00
73101;BME280;61288;53.446;-2.266;2023-10-09T10:00:53;103439.78;;;15.38;100.00
73101;BME280;61288;53.446;-2.266;2023-10-09T10:03:36;103442.38;;;15.40;100.00
73101;BME280;61288;53.446;-2.266;2023-10-09T10:06:07;103443.19;;;15.43;100.00
73101;BME280;61288;53.446;-2.266;2023-10-09T10:08:38;103437.91;;;15.47;100.00
73101;BME280;61288;53.446;-2.266;2023-10-09T10:11:06;103432.66;;;15.48;100.00
73101;BME280;61288;53.446;-2.266;2023-10-09T10:16:11;103427.41;;;15.50;100.00
73101;BME280;61288;53.446;-2.266;2023-10-09T10:18:55;103425.66;;;15.49;100.00
73101;BME280;61288;53.446;-2.266;2023-10-09T10:21:26;103427.38;;;15.51;100.00
73101;BME280;61288;53.446;-2.266;2023-10-09T10:24:01;103431.72;;;15.51;100.00
73101;BME280;61288;53.446;-2.266;2023-10-09T10:26:35;103441.34;;;15.50;100.00
73101;BME280;61288;53.446;-2.266;2023-10-09T10:29:24;103439.56;;;15.51;100.00
73101;BME280;61288;53.446;-2.266;2023-10-09T10:31:53;103442.13;;;15.54;100.00
73101;BME280;61288;53.446;-2.266;2023-10-09T10:34:20;103455.13;;;15.58;100.00
73101;BME280;61288;53.446;-2.266;2023-10-09T10:36:51;103444.69;;;15.57;100.00
73101;BME280;61288;53.446;-2.266;2023-10-09T10:39:33;103456.84;;;15.61;100.00
73101;BME280;61288;53.446;-2.266;2023-10-09T10:42:08;103452.41;;;15.65;100.00
73101;BME280;61288;53.446;-2.266;2023-10-09T10:45:00;103454.03;;;15.70;100.00
73101;BME280;61288;53.446;-2.266;2023-10-09T10:47:27;103459.13;;;15.78;100.00
73101;BME280;61288;53.446;-2.266;2023-10-09T10:50:01;103463.38;;;15.84;100.00
73101;BME280;61288;53.446;-2.266;2023-10-09T10:52:45;103470.28;;;15.90;100.00
73101;BME280;61288;53.446;-2.266;2023-10-09T10:55:11;103477.16;;;15.94;100.00
73101;BME280;61288;53.446;-2.266;2023-10-09T10:58:03;103479.72;;;15.97;100.00
73101;BME280;61288;53.446;-2.266;2023-10-09T11:00:41;103471.81;;;16.00;100.00
73101;BME280;61288;53.446;-2.266;2023-10-09T11:03:32;103471.75;;;16.05;100.00
73101;BME280;61288;53.446;-2.266;2023-10-09T11:06:04;103484.75;;;16.09;100.00
73101;BME280;61288;53.446;-2.266;2023-10-09T11:08:47;103480.28;;;16.13;100.00
73101;BME280;61288;53.446;-2.266;2023-10-09T11:11:34;103475.81;;;16.18;100.00
73101;BME280;61288;53.446;-2.266;2023-10-09T11:14:10;103483.66;;;16.20;100.00
73101;BME280;61288;53.446;-2.266;2023-10-09T11:16:40;103487.03;;;16.25;100.00
73101;BME280;61288;53.446;-2.266;2023-10-09T11:19:20;103484.28;;;16.31;100.00
73101;BME280;61288;53.446;-2.266;2023-10-09T11:22:05;103474.56;;;16.38;100.00
73101;BME280;61288;53.446;-2.266;2023-10-09T11:24:31;103462.38;;;16.37;100.00
73101;BME280;61288;53.446;-2.266;2023-10-09T11:27:05;103451.84;;;16.41;100.00
73101;BME280;61288;53.446;-2.266;2023-10-09T11:29:33;103445.63;;;16.45;100.00
73101;BME280;61288;53.446;-2.266;2023-10-09T11:32:08;103446.34;;;16.52;100.00
73101;BME280;61288;53.446;-2.266;2023-10-09T11:34:36;103444.47;;;16.59;100.00
73101;BME280;61288;53.446;-2.266;2023-10-09T11:39:35;103438.16;;;16.68;100.00
73101;BME280;61288;53.446;-2.266;2023-10-09T11:42:05;103439.00;;;16.68;100.00
73101;BME280;61288;53.446;-2.266;2023-10-09T11:44:38;103438.97;;;16.70;100.00
73101;BME280;61288;53.446;-2.266;2023-10-09T11:47:06;103425.91;;;16.70;100.00
73101;BME280;61288;53.446;-2.266;2023-10-09T11:49:55;103418.78;;;16.75;100.00
73101;BME280;61288;53.446;-2.266;2023-10-09T11:52:27;103423.84;;;16.83;100.00
73101;BME280;61288;53.446;-2.266;2023-10-09T11:55:22;103422.88;;;16.87;100.00
73101;BME280;61288;53.446;-2.266;2023-10-09T11:57:51;103414.06;;;16.89;100.00
73101;BME280;61288;53.446;-2.266;2023-10-09T12:00:17;103400.06;;;16.92;100.00
73101;BME280;61288;53.446;-2.266;2023-10-09T12:02:55;103389.63;;;16.91;100.00
73101;BME280;61288;53.446;-2.266;2023-10-09T12:05:21;103392.19;;;16.92;100.00
73101;BME280;61288;53.446;-2.266;2023-10-09T12:07:49;103386.16;;;16.90;100.00
73101;BME280;61288;53.446;-2.266;2023-10-09T12:10:22;103386.16;;;16.90;100.00
73101;BME280;61288;53.446;-2.266;2023-10-09T12:12:54;103394.91;;;16.89;100.00
73101;BME280;61288;53.446;-2.266;2023-10-09T12:15:23;103393.25;;;16.85;100.00
73101;BME280;61288;53.446;-2.266;2023-10-09T12:17:49;103393.28;;;16.83;100.00
73101;BME280;61288;53.446;-2.266;2023-10-09T12:20:15;103390.72;;;16.82;100.00
73101;BME280;61288;53.446;-2.266;2023-10-09T12:23:00;103389.81;;;16.83;100.00
73101;BME280;61288;53.446;-2.266;2023-10-09T12:25:26;103386.28;;;16.84;100.00
73101;BME280;61288;53.446;-2.266;2023-10-09T12:27:56;103375.81;;;16.84;100.00
73101;BME280;61288;53.446;-2.266;2023-10-09T12:30:23;103366.25;;;16.83;100.00
73101;BME280;61288;53.446;-2.266;2023-10-09T12:32:53;103359.22;;;16.85;100.00
73101;BME280;61288;53.446;-2.266;2023-10-09T12:35:19;103346.13;;;16.85;100.00
73101;BME280;61288;53.446;-2.266;2023-10-09T12:37:46;103347.88;;;16.84;100.00
73101;BME280;61288;53.446;-2.266;2023-10-09T12:40:12;103351.38;;;16.83;100.00
73101;BME280;61288;53.446;-2.266;2023-10-09T12:42:38;103350.47;;;16.86;100.00
73101;BME280;61288;53.446;-2.266;2023-10-09T12:45:06;103344.41;;;16.84;100.00
73101;BME280;61288;53.446;-2.266;2023-10-09T12:47:35;103326.97;;;16.83;100.00
73101;BME280;61288;53.446;-2.266;2023-10-09T12:50:05;103329.63;;;16.81;100.00
73101;BME280;61288;53.446;-2.266;2023-10-09T12:52:41;103324.44;;;16.80;100.00
73101;BME280;61288;53.446;-2.266;2023-10-09T12:55:08;103313.97;;;16.80;100.00
73101;BME280;61288;53.446;-2.266;2023-10-09T12:57:44;103315.69;;;16.79;100.00
73101;BME280;61288;53.446;-2.266;2023-10-09T13:00:10;103315.78;;;16.76;100.00
73101;BME280;61288;53.446;-2.266;2023-10-09T13:02:36;103316.69;;;16.75;100.00
73101;BME280;61288;53.446;-2.266;2023-10-09T13:05:02;103301.91;;;16.72;100.00
73101;BME280;61288;53.446;-2.266;2023-10-09T13:07:32;103308.00;;;16.73;100.00
73101;BME280;61288;53.446;-2.266;2023-10-09T13:09:58;103310.63;;;16.73;100.00
73101;BME280;61288;53.446;-2.266;2023-10-09T13:12:39;103309.75;;;16.72;100.00
73101;BME280;61288;53.446;-2.266;2023-10-09T13:15:10;103314.16;;;16.70;100.00
73101;BME280;61288;53.446;-2.266;2023-10-09T13:17:39;103321.19;;;16.70;100.00
73101;BME280;61288;53.446;-2.266;2023-10-09T13:20:05;103317.69;;;16.69;100.00
73101;BME280;61288;53.446;-2.266;2023-10-09T13:22:52;103308.19;;;16.65;100.00